createdAt,value
2019-05-11T00:01:22.295Z,99610.00
2019-05-11T00:03:51.521Z,99617.00
2019-05-11T00:06:20.218Z,99616.00
2019-05-11T00:08:48.912Z,99610.00
2019-05-11T00:11:17.919Z,99618.00
2019-05-11T00:13:46.576Z,99617.00
2019-05-11T00:16:18.933Z,99615.00
2019-05-11T00:18:46.747Z,99620.00
2019-05-11T00:21:15.755Z,99615.00
2019-05-11T00:23:44.692Z,99619.00
2019-05-11T00:26:13.682Z,99618.00
2019-05-11T00:28:42.365Z,99618.00
2019-05-11T00:31:11.198Z,99615.00
2019-05-11T00:33:40.088Z,99619.00
2019-05-11T00:36:08.792Z,99621.00
2019-05-11T00:38:37.722Z,99615.00
2019-05-11T00:41:06.128Z,99621.00
2019-05-11T00:43:34.816Z,99618.00
2019-05-11T00:46:03.521Z,99620.00
2019-05-11T00:48:32.297Z,99618.00
2019-05-11T00:51:00.907Z,99620.00
2019-05-11T00:53:29.852Z,99617.00
2019-05-11T00:55:58.602Z,99617.00
2019-05-11T00:58:29.111Z,99622.00
2019-05-11T01:00:57.787Z,99622.00
2019-05-11T01:03:26.801Z,99628.00
2019-05-11T01:05:55.799Z,99627.00
2019-05-11T01:08:24.401Z,99630.00
2019-05-11T01:10:52.872Z,99635.00
2019-05-11T01:13:21.423Z,99626.00
2019-05-11T01:15:49.835Z,99634.00
2019-05-11T01:18:18.610Z,99634.00
2019-05-11T01:20:46.962Z,99635.00
2019-05-11T01:23:15.471Z,99633.00
2019-05-11T01:25:44.117Z,99630.00
2019-05-11T01:28:12.635Z,99639.00
2019-05-11T01:30:41.387Z,99632.00
2019-05-11T01:33:10.115Z,99633.00
2019-05-11T01:35:39.091Z,99632.00
2019-05-11T01:38:07.476Z,99631.00
2019-05-11T01:40:35.908Z,99638.00
2019-05-11T01:43:04.882Z,99632.00
2019-05-11T01:45:34.138Z,99634.00
2019-05-11T01:48:02.839Z,99629.00
2019-05-11T01:50:31.552Z,99629.00
2019-05-11T01:53:00.486Z,99631.00
2019-05-11T01:55:28.904Z,99633.00
2019-05-11T01:57:57.587Z,99639.00
2019-05-11T02:00:28.182Z,99642.00
2019-05-11T02:02:57.064Z,99640.00
2019-05-11T02:05:28.902Z,99633.00
2019-05-11T02:08:00.014Z,99639.00
2019-05-11T02:10:29.625Z,99645.00
2019-05-11T02:12:58.738Z,99636.00
2019-05-11T02:15:27.995Z,99640.00
2019-05-11T02:17:57.053Z,99645.00
2019-05-11T02:20:25.576Z,99636.00
2019-05-11T02:22:54.326Z,99646.00
2019-05-11T02:25:22.932Z,99639.00
2019-05-11T02:27:51.650Z,99646.00
2019-05-11T02:30:21.026Z,99649.00
2019-05-11T02:32:50.354Z,99647.00
2019-05-11T02:35:18.924Z,99652.00
2019-05-11T02:37:47.546Z,99648.00
2019-05-11T02:40:18.568Z,99652.00
2019-05-11T02:42:47.172Z,99652.00
2019-05-11T02:45:51.539Z,99651.00
2019-05-11T02:48:20.675Z,99661.00
2019-05-11T02:50:50.456Z,99662.00
2019-05-11T02:53:20.303Z,99671.00
2019-05-11T02:55:49.509Z,99668.00
2019-05-11T02:58:18.274Z,99676.00
2019-05-11T03:00:49.965Z,99675.00
2019-05-11T03:03:18.708Z,99672.00
2019-05-11T03:05:47.711Z,99676.00
2019-05-11T03:08:16.283Z,99687.00
2019-05-11T03:10:45.136Z,99671.00
2019-05-11T03:13:14.098Z,99677.00
2019-05-11T03:15:42.601Z,99673.00
2019-05-11T03:18:11.128Z,99679.00
2019-05-11T03:20:39.772Z,99680.00
2019-05-11T03:23:08.555Z,99683.00
2019-05-11T03:25:37.266Z,99693.00
2019-05-11T03:28:06.024Z,99692.00
2019-05-11T03:30:34.748Z,99688.00
2019-05-11T03:33:04.387Z,99686.00
2019-05-11T03:35:32.999Z,99687.00
2019-05-11T03:38:01.617Z,99691.00
2019-05-11T03:40:30.285Z,99692.00
2019-05-11T03:42:59.267Z,99687.00
2019-05-11T03:45:28.280Z,99690.00
2019-05-11T03:47:56.973Z,99683.00
2019-05-11T03:50:25.622Z,99689.00
2019-05-11T03:52:54.761Z,99682.00
2019-05-11T03:55:23.607Z,99672.00
2019-05-11T03:57:52.911Z,99683.00
2019-05-11T04:00:22.246Z,99681.00
2019-05-11T04:02:52.734Z,99688.00
2019-05-11T04:05:21.459Z,99691.00
2019-05-11T04:07:50.085Z,99692.00
2019-05-11T04:10:19.142Z,99696.00
2019-05-11T04:12:47.868Z,99699.00
2019-05-11T04:15:16.887Z,99700.00
2019-05-11T04:17:45.439Z,99699.00
2019-05-11T04:20:14.223Z,99696.00
2019-05-11T04:22:43.225Z,99700.00
2019-05-11T04:25:12.515Z,99701.00
2019-05-11T04:27:41.513Z,99704.00
2019-05-11T04:30:10.890Z,99695.00
2019-05-11T04:32:39.476Z,99694.00
2019-05-11T04:35:08.781Z,99703.00
2019-05-11T04:37:37.521Z,99696.00
2019-05-11T04:40:06.726Z,99703.00
2019-05-11T04:42:53.240Z,99704.00
2019-05-11T04:45:07.085Z,99700.00
2019-05-11T04:47:35.725Z,99695.00
2019-05-11T04:50:04.905Z,99703.00
2019-05-11T04:52:33.520Z,99709.00
2019-05-11T04:55:02.846Z,99705.00
2019-05-11T04:57:31.259Z,99712.00
2019-05-11T05:00:00.234Z,99707.00
2019-05-11T05:02:28.726Z,99710.00
2019-05-11T05:04:59.749Z,99707.00
2019-05-11T05:07:28.758Z,99705.00
2019-05-11T05:09:57.724Z,99699.00
2019-05-11T05:12:26.441Z,99693.00
2019-05-11T05:14:55.808Z,99701.00
2019-05-11T05:17:24.453Z,99709.00
2019-05-11T05:19:53.380Z,99709.00
2019-05-11T05:22:22.005Z,99713.00
2019-05-11T05:24:50.762Z,99713.00
2019-05-11T05:27:19.797Z,99722.00
2019-05-11T05:29:48.483Z,99715.00
2019-05-11T05:32:16.978Z,99717.00
2019-05-11T05:34:45.494Z,99716.00
2019-05-11T05:37:14.237Z,99713.00
2019-05-11T05:39:42.622Z,99715.00
2019-05-11T05:42:11.279Z,99707.00
2019-05-11T05:44:39.959Z,99702.00
2019-05-11T05:47:08.359Z,99705.00
2019-05-11T05:49:36.755Z,99707.00
2019-05-11T05:52:05.433Z,99712.00
2019-05-11T05:54:34.156Z,99714.00
2019-05-11T05:57:02.747Z,99708.00
2019-05-11T05:59:31.487Z,99722.00
2019-05-11T06:02:00.186Z,99714.00
2019-05-11T06:04:28.897Z,99714.00
2019-05-11T06:06:59.340Z,99721.00
2019-05-11T06:09:28.100Z,99722.00
2019-05-11T06:11:57.405Z,99713.00
2019-05-11T06:14:25.627Z,99713.00
2019-05-11T06:16:55.087Z,99713.00
2019-05-11T06:19:24.420Z,99710.00
2019-05-11T06:21:53.135Z,99716.00
2019-05-11T06:24:22.060Z,99716.00
2019-05-11T06:26:50.840Z,99721.00
2019-05-11T06:29:21.898Z,99719.00
2019-05-11T06:31:49.845Z,99724.00
2019-05-11T06:34:18.427Z,99721.00
2019-05-11T06:36:47.015Z,99726.00
2019-05-11T06:39:15.977Z,99728.00
2019-05-11T06:41:44.594Z,99727.00
2019-05-11T06:44:13.139Z,99730.00
2019-05-11T06:46:42.092Z,99738.00
2019-05-11T06:49:10.906Z,99746.00
2019-05-11T06:51:41.886Z,99733.00
2019-05-11T06:54:11.222Z,99737.00
2019-05-11T06:56:40.240Z,99737.00
2019-05-11T06:59:08.891Z,99742.00
2019-05-11T07:01:37.425Z,99729.00
2019-05-11T07:04:07.124Z,99720.00
2019-05-11T07:06:35.543Z,99727.00
2019-05-11T07:09:06.163Z,99721.00
2019-05-11T07:11:35.117Z,99722.00
2019-05-11T07:14:19.320Z,99729.00
2019-05-11T07:16:34.410Z,99727.00
2019-05-11T07:19:03.028Z,99730.00
2019-05-11T07:21:31.391Z,99733.00
2019-05-11T07:24:00.118Z,99750.00
2019-05-11T07:26:29.719Z,99738.00
2019-05-11T07:28:58.958Z,99737.00
2019-05-11T07:31:27.711Z,99739.00
2019-05-11T07:33:58.599Z,99749.00
2019-05-11T07:36:28.287Z,99754.00
2019-05-11T07:38:58.032Z,99744.00
2019-05-11T07:41:28.181Z,99752.00
2019-05-11T07:43:58.976Z,99746.00
2019-05-11T07:46:28.836Z,99753.00
2019-05-11T07:48:58.553Z,99754.00
2019-05-11T07:51:28.706Z,99767.00
2019-05-11T07:53:59.650Z,99774.00
2019-05-11T07:56:28.674Z,99784.00
2019-05-11T07:58:58.139Z,99780.00
2019-05-11T08:01:28.242Z,99785.00
2019-05-11T08:03:58.656Z,99772.00
2019-05-11T08:06:28.548Z,99779.00
2019-05-11T08:08:58.861Z,99778.00
2019-05-11T08:11:31.098Z,99785.00
2019-05-11T08:13:58.617Z,99778.00
2019-05-11T08:16:28.623Z,99781.00
2019-05-11T08:18:58.821Z,99783.00
2019-05-11T08:21:28.533Z,99780.00
2019-05-11T08:23:58.795Z,99791.00
2019-05-11T08:26:28.256Z,99786.00
2019-05-11T08:28:57.898Z,99793.00
2019-05-11T08:31:27.921Z,99796.00
2019-05-11T08:33:58.357Z,99803.00
2019-05-11T08:36:28.819Z,99800.00
2019-05-11T08:38:58.595Z,99800.00
2019-05-11T08:41:28.164Z,99804.00
2019-05-11T08:43:58.681Z,99790.00
2019-05-11T08:46:28.133Z,99808.00
2019-05-11T08:48:56.529Z,99795.00
2019-05-11T08:51:24.987Z,99808.00
2019-05-11T08:53:53.657Z,99791.00
2019-05-11T08:56:23.550Z,99798.00
2019-05-11T08:58:55.066Z,99804.00
2019-05-11T09:01:22.786Z,99791.00
2019-05-11T09:03:51.432Z,99799.00
2019-05-11T09:06:20.298Z,99787.00
2019-05-11T09:08:49.509Z,99798.00
2019-05-11T09:11:19.045Z,99807.00
2019-05-11T09:13:48.817Z,99796.00
2019-05-11T09:16:19.003Z,99804.00
2019-05-11T09:18:48.270Z,99789.00
2019-05-11T09:21:19.048Z,99790.00
2019-05-11T09:23:48.655Z,99801.00
2019-05-11T09:26:24.363Z,99787.00
2019-05-11T09:28:53.460Z,99789.00
2019-05-11T09:31:22.083Z,99784.00
2019-05-11T09:33:50.513Z,99793.00
2019-05-11T09:36:19.176Z,99799.00
2019-05-11T09:38:48.967Z,99794.00
2019-05-11T09:41:18.290Z,99787.00
2019-05-11T09:43:48.275Z,99794.00
2019-05-11T09:46:18.828Z,99792.00
2019-05-11T09:48:48.475Z,99797.00
2019-05-11T09:51:18.503Z,99793.00
2019-05-11T09:53:48.242Z,99812.00
2019-05-11T09:56:18.414Z,99811.00
2019-05-11T09:58:49.269Z,99809.00
2019-05-11T10:01:18.528Z,99807.00
2019-05-11T10:03:48.180Z,99812.00
2019-05-11T10:06:18.968Z,99817.00
2019-05-11T10:08:48.775Z,99826.00
2019-05-11T10:11:18.914Z,99824.00
2019-05-11T10:13:48.109Z,99819.00
2019-05-11T10:16:17.810Z,99830.00
2019-05-11T10:18:49.253Z,99812.00
2019-05-11T10:21:18.924Z,99823.00
2019-05-11T10:23:49.048Z,99824.00
2019-05-11T10:26:18.975Z,99829.00
2019-05-11T10:28:48.462Z,99827.00
2019-05-11T10:31:18.110Z,99826.00
2019-05-11T10:33:48.894Z,99822.00
2019-05-11T10:36:18.957Z,99826.00
2019-05-11T10:38:48.808Z,99823.00
2019-05-11T10:41:18.433Z,99828.00
2019-05-11T10:43:48.949Z,99830.00
2019-05-11T10:46:22.925Z,99832.00
2019-05-11T10:48:48.924Z,99827.00
2019-05-11T10:51:18.561Z,99822.00
2019-05-11T10:53:51.646Z,99838.00
2019-05-11T10:56:18.152Z,99830.00
2019-05-11T10:58:48.186Z,99833.00
2019-05-11T11:01:19.234Z,99826.00
2019-05-11T11:03:48.552Z,99833.00
2019-05-11T11:06:18.843Z,99829.00
2019-05-11T11:08:48.620Z,99826.00
2019-05-11T11:11:18.458Z,99840.00
2019-05-11T11:13:48.256Z,99831.00
2019-05-11T11:16:32.837Z,99839.00
2019-05-11T11:18:48.651Z,99837.00
2019-05-11T11:21:22.600Z,99841.00
2019-05-11T11:23:48.355Z,99838.00
2019-05-11T11:26:18.440Z,99846.00
2019-05-11T11:28:47.898Z,99850.00
2019-05-11T11:31:18.633Z,99844.00
2019-05-11T11:33:49.007Z,99843.00
2019-05-11T11:36:18.075Z,99847.00
2019-05-11T11:38:47.821Z,99835.00
2019-05-11T11:41:18.585Z,99844.00
2019-05-11T11:43:48.422Z,99845.00
2019-05-11T11:46:18.833Z,99848.00
2019-05-11T11:48:48.860Z,99848.00
2019-05-11T11:51:18.722Z,99851.00
2019-05-11T11:53:48.160Z,99838.00
2019-05-11T11:56:19.185Z,99855.00
2019-05-11T11:58:48.787Z,99856.00
2019-05-11T12:01:18.941Z,99853.00
2019-05-11T12:03:50.342Z,99840.00
2019-05-11T12:06:18.967Z,99844.00
2019-05-11T12:08:49.607Z,99843.00
2019-05-11T12:11:18.935Z,99856.00
2019-05-11T12:13:47.910Z,99843.00
2019-05-11T12:16:18.005Z,99847.00
2019-05-11T12:18:48.705Z,99850.00
2019-05-11T12:21:18.566Z,99850.00
2019-05-11T12:23:48.553Z,99854.00
2019-05-11T12:26:18.023Z,99857.00
2019-05-11T12:28:48.725Z,99853.00
2019-05-11T12:31:18.494Z,99843.00
2019-05-11T12:33:48.184Z,99848.00
2019-05-11T12:36:18.804Z,99849.00
2019-05-11T12:38:48.797Z,99844.00
2019-05-11T12:41:18.972Z,99847.00
2019-05-11T12:43:48.852Z,99847.00
2019-05-11T12:46:18.900Z,99850.00
2019-05-11T12:48:48.543Z,99848.00
2019-05-11T12:51:18.703Z,99854.00
2019-05-11T12:53:47.925Z,99858.00
2019-05-11T12:56:18.998Z,99847.00
2019-05-11T12:58:49.125Z,99845.00
2019-05-11T13:01:19.625Z,99844.00
2019-05-11T13:03:50.219Z,99842.00
2019-05-11T13:06:19.344Z,99846.00
2019-05-11T13:08:48.801Z,99851.00
2019-05-11T13:11:18.784Z,99845.00
2019-05-11T13:13:48.549Z,99850.00
2019-05-11T13:16:18.491Z,99853.00
2019-05-11T13:18:48.831Z,99852.00
2019-05-11T13:21:18.344Z,99852.00
2019-05-11T13:23:48.916Z,99850.00
2019-05-11T13:26:18.132Z,99842.00
2019-05-11T13:28:48.437Z,99842.00
2019-05-11T13:31:18.766Z,99851.00
2019-05-11T13:33:48.069Z,99843.00
2019-05-11T13:36:18.533Z,99843.00
2019-05-11T13:38:48.433Z,99836.00
2019-05-11T13:41:18.905Z,99835.00
2019-05-11T13:43:48.617Z,99839.00
2019-05-11T13:46:18.043Z,99843.00
2019-05-11T13:48:47.711Z,99852.00
2019-05-11T13:51:18.245Z,99847.00
2019-05-11T13:53:48.169Z,99845.00
2019-05-11T13:56:18.368Z,99846.00
2019-05-11T13:58:48.804Z,99853.00
2019-05-11T14:01:18.780Z,99851.00
2019-05-11T14:03:49.064Z,99852.00
2019-05-11T14:06:19.902Z,99847.00
2019-05-11T14:08:48.371Z,99859.00
2019-05-11T14:11:18.124Z,99853.00
2019-05-11T14:13:48.138Z,99852.00
2019-05-11T14:16:18.537Z,99858.00
2019-05-11T14:18:48.911Z,99857.00
2019-05-11T14:21:18.716Z,99856.00
2019-05-11T14:23:48.385Z,99857.00
2019-05-11T14:26:19.152Z,99858.00
2019-05-11T14:28:48.207Z,99864.00
2019-05-11T14:31:18.832Z,99866.00
2019-05-11T14:33:49.055Z,99861.00
2019-05-11T14:36:18.575Z,99854.00
2019-05-11T14:38:48.804Z,99858.00
2019-05-11T14:41:18.175Z,99855.00
2019-05-11T14:43:48.970Z,99859.00
2019-05-11T14:46:18.250Z,99862.00
2019-05-11T14:48:48.091Z,99865.00
2019-05-11T14:51:18.127Z,99868.00
2019-05-11T14:53:48.098Z,99872.00
2019-05-11T14:56:19.016Z,99864.00
2019-05-11T14:58:49.198Z,99865.00
2019-05-11T15:01:18.428Z,99870.00
2019-05-11T15:03:48.686Z,99874.00
2019-05-11T15:06:18.864Z,99874.00
2019-05-11T15:08:49.553Z,99872.00
2019-05-11T15:11:19.128Z,99879.00
2019-05-11T15:13:48.811Z,99886.00
2019-05-11T15:16:18.793Z,99887.00
2019-05-11T15:18:48.488Z,99888.00
2019-05-11T15:21:18.984Z,99885.00
2019-05-11T15:23:47.875Z,99892.00
2019-05-11T15:26:18.664Z,99884.00
2019-05-11T15:28:48.542Z,99894.00
2019-05-11T15:31:22.149Z,99898.00
2019-05-11T15:33:49.018Z,99897.00
2019-05-11T15:36:19.243Z,99904.00
2019-05-11T15:38:48.139Z,99899.00
2019-05-11T15:41:17.763Z,99894.00
2019-05-11T15:43:48.073Z,99894.00
2019-05-11T15:46:19.541Z,99898.00
2019-05-11T15:48:58.505Z,99901.00
2019-05-11T15:51:18.730Z,99893.00
2019-05-11T15:53:50.089Z,99902.00
2019-05-11T15:56:18.989Z,99896.00
2019-05-11T15:58:48.583Z,99899.00
2019-05-11T16:01:18.832Z,99895.00
2019-05-11T16:03:49.884Z,99897.00
2019-05-11T16:06:19.208Z,99896.00
2019-05-11T16:08:49.825Z,99895.00
2019-05-11T16:11:18.507Z,99901.00
2019-05-11T16:13:48.462Z,99900.00
2019-05-11T16:16:17.078Z,99901.00
2019-05-11T16:18:46.050Z,99914.00
2019-05-11T16:21:14.686Z,99917.00
2019-05-11T16:23:43.145Z,99905.00
2019-05-11T16:26:12.161Z,99909.00
2019-05-11T16:28:41.149Z,99915.00
2019-05-11T16:31:10.103Z,99916.00
2019-05-11T16:33:38.834Z,99914.00
2019-05-11T16:36:09.006Z,99925.00
2019-05-11T16:38:38.220Z,99918.00
2019-05-11T16:41:08.947Z,99923.00
2019-05-11T16:43:38.544Z,99924.00
2019-05-11T16:46:08.664Z,99925.00
2019-05-11T16:48:38.303Z,99935.00
2019-05-11T16:51:08.665Z,99938.00
2019-05-11T16:53:39.064Z,99929.00
2019-05-11T16:56:08.441Z,99931.00
2019-05-11T16:58:40.712Z,99931.00
2019-05-11T17:01:08.814Z,99922.00
2019-05-11T17:03:38.490Z,99933.00
2019-05-11T17:06:08.334Z,99930.00
2019-05-11T17:08:38.377Z,99939.00
2019-05-11T17:11:09.034Z,99943.00
2019-05-11T17:13:39.506Z,99942.00
2019-05-11T17:16:08.843Z,99943.00
2019-05-11T17:18:37.609Z,99948.00
2019-05-11T17:21:07.785Z,99949.00
2019-05-11T17:23:38.204Z,99954.00
2019-05-11T17:26:08.533Z,99959.00
2019-05-11T17:28:38.484Z,99963.00
2019-05-11T17:31:08.023Z,99958.00
2019-05-11T17:33:38.496Z,99967.00
2019-05-11T17:36:08.409Z,99966.00
2019-05-11T17:38:38.932Z,99971.00
2019-05-11T17:41:08.661Z,99973.00
2019-05-11T17:43:38.633Z,99979.00
2019-05-11T17:46:08.159Z,99981.00
2019-05-11T17:48:38.862Z,99982.00
2019-05-11T17:51:20.940Z,99979.00
2019-05-11T17:53:37.885Z,99988.00
2019-05-11T17:56:06.913Z,99985.00
2019-05-11T17:58:37.680Z,99997.00
2019-05-11T18:01:06.068Z,99994.00
2019-05-11T18:03:34.532Z,99987.00
2019-05-11T18:06:03.919Z,99990.00
2019-05-11T18:08:32.494Z,99992.00
2019-05-11T18:11:02.117Z,99997.00
2019-05-11T18:13:33.011Z,100002.00
2019-05-11T18:16:02.998Z,100007.00
2019-05-11T18:18:31.618Z,100012.00
2019-05-11T18:21:00.569Z,100010.00
2019-05-11T18:23:29.617Z,100011.00
2019-05-11T18:25:57.915Z,100008.00
2019-05-11T18:28:29.098Z,100019.00
2019-05-11T18:30:58.275Z,100021.00
2019-05-11T18:33:27.721Z,100028.00
2019-05-11T18:35:58.569Z,100024.00
2019-05-11T18:38:27.603Z,100026.00
2019-05-11T18:40:57.980Z,100032.00
2019-05-11T18:43:28.049Z,100038.00
2019-05-11T18:45:58.153Z,100038.00
2019-05-11T18:48:28.950Z,100043.00
2019-05-11T18:50:59.004Z,100040.00
2019-05-11T18:53:28.853Z,100041.00
2019-05-11T18:55:58.984Z,100053.00
2019-05-11T18:58:28.100Z,100044.00
2019-05-11T19:00:56.401Z,100051.00
2019-05-11T19:03:25.127Z,100053.00
2019-05-11T19:05:53.770Z,100054.00
2019-05-11T19:08:22.489Z,100054.00
2019-05-11T19:10:51.231Z,100057.00
2019-05-11T19:13:21.363Z,100055.00
2019-05-11T19:15:52.096Z,100057.00
2019-05-11T19:18:20.936Z,100055.00
2019-05-11T19:20:49.704Z,100062.00
2019-05-11T19:23:19.282Z,100069.00
2019-05-11T19:25:48.249Z,100063.00
2019-05-11T19:28:18.644Z,100066.00
2019-05-11T19:30:48.850Z,100067.00
2019-05-11T19:33:18.963Z,100067.00
2019-05-11T19:35:48.183Z,100077.00
2019-05-11T19:38:18.924Z,100080.00
2019-05-11T19:40:48.463Z,100078.00
2019-05-11T19:43:18.538Z,100077.00
2019-05-11T19:45:48.732Z,100089.00
2019-05-11T19:48:17.469Z,100083.00
2019-05-11T19:51:00.889Z,100086.00
2019-05-11T19:53:18.714Z,100082.00
2019-05-11T19:55:47.937Z,100077.00
2019-05-11T19:58:19.177Z,100083.00
2019-05-11T20:00:48.810Z,100079.00
2019-05-11T20:03:18.261Z,100073.00
2019-05-11T20:05:48.564Z,100085.00
2019-05-11T20:08:18.429Z,100077.00
2019-05-11T20:10:48.673Z,100086.00
2019-05-11T20:13:17.983Z,100077.00
2019-05-11T20:15:48.745Z,100081.00
2019-05-11T20:18:19.219Z,100082.00
2019-05-11T20:20:48.163Z,100085.00
2019-05-11T20:23:16.982Z,100083.00
2019-05-11T20:25:47.662Z,100086.00
2019-05-11T20:28:18.177Z,100077.00
2019-05-11T20:30:48.315Z,100082.00
2019-05-11T20:33:18.938Z,100084.00
2019-05-11T20:35:48.818Z,100081.00
2019-05-11T20:38:18.809Z,100087.00
2019-05-11T20:40:48.444Z,100091.00
2019-05-11T20:43:18.606Z,100090.00
2019-05-11T20:45:48.580Z,100081.00
2019-05-11T20:48:18.603Z,100087.00
2019-05-11T20:50:48.365Z,100090.00
2019-05-11T20:53:18.039Z,100096.00
2019-05-11T20:55:47.813Z,100087.00
2019-05-11T20:58:18.970Z,100085.00
2019-05-11T21:00:49.045Z,100091.00
2019-05-11T21:03:18.124Z,100088.00
2019-05-11T21:05:48.216Z,100086.00
2019-05-11T21:08:17.739Z,100096.00
2019-05-11T21:10:48.996Z,100102.00
2019-05-11T21:13:17.909Z,100099.00
2019-05-11T21:15:47.826Z,100106.00
2019-05-11T21:18:18.414Z,100102.00
2019-05-11T21:20:48.976Z,100109.00
2019-05-11T21:23:18.575Z,100105.00
2019-05-11T21:25:48.196Z,100109.00
2019-05-11T21:28:17.173Z,100118.00
2019-05-11T21:30:48.140Z,100118.00
2019-05-11T21:33:17.885Z,100127.00
2019-05-11T21:35:48.923Z,100132.00
2019-05-11T21:38:17.773Z,100126.00
2019-05-11T21:40:48.485Z,100136.00
2019-05-11T21:43:16.962Z,100139.00
2019-05-11T21:45:45.672Z,100147.00
2019-05-11T21:48:14.091Z,100147.00
2019-05-11T21:50:42.705Z,100143.00
2019-05-11T21:53:11.369Z,100150.00
2019-05-11T21:55:39.849Z,100151.00
2019-05-11T21:58:09.129Z,100150.00
2019-05-11T22:00:38.741Z,100153.00
2019-05-11T22:03:10.082Z,100147.00
2019-05-11T22:05:38.168Z,100149.00
2019-05-11T22:08:08.560Z,100156.00
2019-05-11T22:10:38.500Z,100159.00
2019-05-11T22:13:07.530Z,100160.00
2019-05-11T22:15:38.367Z,100162.00
2019-05-11T22:18:07.985Z,100157.00
2019-05-11T22:20:41.000Z,100158.00
2019-05-11T22:23:11.337Z,100156.00
2019-05-11T22:25:40.028Z,100161.00
2019-05-11T22:28:08.656Z,100159.00
2019-05-11T22:30:39.329Z,100169.00
2019-05-11T22:33:08.813Z,100164.00
2019-05-11T22:35:37.848Z,100164.00
2019-05-11T22:38:08.372Z,100159.00
2019-05-11T22:40:38.317Z,100163.00
2019-05-11T22:43:09.321Z,100171.00
2019-05-11T22:45:38.254Z,100167.00
2019-05-11T22:48:07.871Z,100168.00
2019-05-11T22:50:38.189Z,100170.00
2019-05-11T22:53:08.899Z,100181.00
2019-05-11T22:55:38.255Z,100173.00
2019-05-11T22:58:08.454Z,100171.00
2019-05-11T23:00:42.608Z,100176.00
2019-05-11T23:03:11.567Z,100182.00
2019-05-11T23:05:40.739Z,100179.00
2019-05-11T23:08:09.299Z,100178.00
2019-05-11T23:10:38.808Z,100177.00
2019-05-11T23:13:11.381Z,100175.00
2019-05-11T23:15:40.384Z,100174.00
2019-05-11T23:18:09.232Z,100179.00
2019-05-11T23:20:38.847Z,100182.00
2019-05-11T23:23:09.179Z,100174.00
2019-05-11T23:25:39.504Z,100184.00
2019-05-11T23:28:08.369Z,100188.00
2019-05-11T23:30:38.994Z,100187.00
2019-05-11T23:33:08.038Z,100189.00
2019-05-11T23:35:38.309Z,100186.00
2019-05-11T23:38:07.924Z,100187.00
2019-05-11T23:40:37.936Z,100190.00
2019-05-11T23:43:08.663Z,100192.00
2019-05-11T23:45:38.198Z,100186.00
2019-05-11T23:48:06.918Z,100182.00
2019-05-11T23:50:35.621Z,100182.00
2019-05-11T23:53:06.834Z,100185.00
2019-05-11T23:55:34.939Z,100179.00
2019-05-11T23:58:03.520Z,100185.00
